sensor_id;sensor_type;location;lat;lon;timestamp;temperature;humidity
612;DHT22;293;53.888;11.464;2023-03-31T00:01:25;11.60;99.90
612;DHT22;293;53.888;11.464;2023-03-31T00:03:52;11.60;99.90
612;DHT22;293;53.888;11.464;2023-03-31T00:06:28;11.60;99.90
612;DHT22;293;53.888;11.464;2023-03-31T00:08:55;11.60;99.90
612;DHT22;293;53.888;11.464;2023-03-31T00:11:27;11.50;99.90
612;DHT22;293;53.888;11.464;2023-03-31T00:13:54;11.40;99.90
612;DHT22;293;53.888;11.464;2023-03-31T00:16:21;11.40;99.90
612;DHT22;293;53.888;11.464;2023-03-31T00:18:48;11.30;99.90
612;DHT22;293;53.888;11.464;2023-03-31T00:21:17;11.30;99.90
612;DHT22;293;53.888;11.464;2023-03-31T00:23:52;11.30;99.90
612;DHT22;293;53.888;11.464;2023-03-31T00:26:19;11.20;99.90
612;DHT22;293;53.888;11.464;2023-03-31T00:28:46;11.20;99.90
612;DHT22;293;53.888;11.464;2023-03-31T00:31:14;11.10;99.90
612;DHT22;293;53.888;11.464;2023-03-31T00:33:41;11.10;99.90
612;DHT22;293;53.888;11.464;2023-03-31T00:36:08;11.10;99.90
612;DHT22;293;53.888;11.464;2023-03-31T00:38:35;11.10;99.90
612;DHT22;293;53.888;11.464;2023-03-31T00:41:04;11.10;99.90
612;DHT22;293;53.888;11.464;2023-03-31T00:43:33;11.10;99.90
612;DHT22;293;53.888;11.464;2023-03-31T00:46:06;11.10;99.90
612;DHT22;293;53.888;11.464;2023-03-31T00:48:41;11.10;99.90
612;DHT22;293;53.888;11.464;2023-03-31T00:51:11;11.00;99.90
612;DHT22;293;53.888;11.464;2023-03-31T00:53:37;11.10;99.90
612;DHT22;293;53.888;11.464;2023-03-31T00:56:12;11.00;99.90
612;DHT22;293;53.888;11.464;2023-03-31T00:58:41;11.00;99.90
612;DHT22;293;53.888;11.464;2023-03-31T01:01:11;10.90;99.90
612;DHT22;293;53.888;11.464;2023-03-31T01:03:40;11.00;99.90
612;DHT22;293;53.888;11.464;2023-03-31T01:06:12;11.00;99.90
612;DHT22;293;53.888;11.464;2023-03-31T01:08:40;11.00;99.90
612;DHT22;293;53.888;11.464;2023-03-31T01:11:13;11.00;99.90
612;DHT22;293;53.888;11.464;2023-03-31T01:13:41;11.10;99.90
612;DHT22;293;53.888;11.464;2023-03-31T01:16:10;11.10;99.90
612;DHT22;293;53.888;11.464;2023-03-31T01:18:37;11.10;99.90
612;DHT22;293;53.888;11.464;2023-03-31T01:21:44;11.20;99.90
612;DHT22;293;53.888;11.464;2023-03-31T01:27:47;11.10;99.90
612;DHT22;293;53.888;11.464;2023-03-31T01:33:50;11.20;99.90
612;DHT22;293;53.888;11.464;2023-03-31T01:36:36;11.20;99.90
612;DHT22;293;53.888;11.464;2023-03-31T01:39:43;11.30;99.90
612;DHT22;293;53.888;11.464;2023-03-31T01:42:13;11.30;99.90
612;DHT22;293;53.888;11.464;2023-03-31T01:44:44;11.30;99.90
612;DHT22;293;53.888;11.464;2023-03-31T01:47:16;11.30;99.90
612;DHT22;293;53.888;11.464;2023-03-31T01:49:53;11.40;99.90
612;DHT22;293;53.888;11.464;2023-03-31T01:52:24;11.30;99.90
612;DHT22;293;53.888;11.464;2023-03-31T01:54:54;11.30;99.90
612;DHT22;293;53.888;11.464;2023-03-31T01:57:29;11.30;99.90
612;DHT22;293;53.888;11.464;2023-03-31T02:00:01;11.40;99.90
612;DHT22;293;53.888;11.464;2023-03-31T02:02:34;11.40;99.90
612;DHT22;293;53.888;11.464;2023-03-31T02:05:08;11.40;99.90
612;DHT22;293;53.888;11.464;2023-03-31T02:07:41;11.30;99.90
612;DHT22;293;53.888;11.464;2023-03-31T02:10:11;11.30;99.90
612;DHT22;293;53.888;11.464;2023-03-31T02:12:40;11.40;99.90
612;DHT22;293;53.888;11.464;2023-03-31T02:15:10;11.40;99.90
612;DHT22;293;53.888;11.464;2023-03-31T02:17:42;11.40;99.90
612;DHT22;293;53.888;11.464;2023-03-31T02:20:13;11.40;99.90
612;DHT22;293;53.888;11.464;2023-03-31T02:22:44;11.50;99.90
612;DHT22;293;53.888;11.464;2023-03-31T02:25:15;11.50;99.90
612;DHT22;293;53.888;11.464;2023-03-31T02:27:46;11.50;99.90
612;DHT22;293;53.888;11.464;2023-03-31T02:30:15;11.40;99.90
612;DHT22;293;53.888;11.464;2023-03-31T02:32:43;11.40;99.90
612;DHT22;293;53.888;11.464;2023-03-31T02:35:13;11.50;99.90
612;DHT22;293;53.888;11.464;2023-03-31T02:37:41;11.40;99.90
612;DHT22;293;53.888;11.464;2023-03-31T02:40:13;11.40;99.90
612;DHT22;293;53.888;11.464;2023-03-31T02:42:41;11.40;99.90
612;DHT22;293;53.888;11.464;2023-03-31T02:45:35;11.40;99.90
612;DHT22;293;53.888;11.464;2023-03-31T02:48:03;11.50;99.90
612;DHT22;293;53.888;11.464;2023-03-31T02:50:36;11.40;99.90
612;DHT22;293;53.888;11.464;2023-03-31T02:53:11;11.50;99.90
612;DHT22;293;53.888;11.464;2023-03-31T02:55:58;11.40;99.90
612;DHT22;293;53.888;11.464;2023-03-31T02:58:56;11.40;99.90
612;DHT22;293;53.888;11.464;2023-03-31T03:01:38;11.40;99.90
612;DHT22;293;53.888;11.464;2023-03-31T03:04:15;11.30;99.90
612;DHT22;293;53.888;11.464;2023-03-31T03:06:55;11.30;99.90
612;DHT22;293;53.888;11.464;2023-03-31T03:09:35;11.30;99.90
612;DHT22;293;53.888;11.464;2023-03-31T03:12:12;11.20;99.90
612;DHT22;293;53.888;11.464;2023-03-31T03:14:45;11.20;99.90
612;DHT22;293;53.888;11.464;2023-03-31T03:17:21;11.20;99.90
612;DHT22;293;53.888;11.464;2023-03-31T03:19:51;11.30;99.90
612;DHT22;293;53.888;11.464;2023-03-31T03:22:19;11.30;99.90
612;DHT22;293;53.888;11.464;2023-03-31T03:24:46;11.30;99.90
612;DHT22;293;53.888;11.464;2023-03-31T03:27:14;11.40;99.90
612;DHT22;293;53.888;11.464;2023-03-31T03:29:41;11.40;99.90
612;DHT22;293;53.888;11.464;2023-03-31T03:32:09;11.40;99.90
612;DHT22;293;53.888;11.464;2023-03-31T03:34:36;11.40;99.90
612;DHT22;293;53.888;11.464;2023-03-31T03:37:03;11.40;99.90
612;DHT22;293;53.888;11.464;2023-03-31T03:39:30;11.40;99.90
612;DHT22;293;53.888;11.464;2023-03-31T03:41:57;11.40;99.90
612;DHT22;293;53.888;11.464;2023-03-31T03:44:25;11.40;99.90
612;DHT22;293;53.888;11.464;2023-03-31T03:46:52;11.40;99.90
612;DHT22;293;53.888;11.464;2023-03-31T03:49:19;11.40;99.90
612;DHT22;293;53.888;11.464;2023-03-31T03:51:46;11.40;99.90
612;DHT22;293;53.888;11.464;2023-03-31T03:54:13;11.30;99.90
612;DHT22;293;53.888;11.464;2023-03-31T03:56:40;11.30;99.90
612;DHT22;293;53.888;11.464;2023-03-31T03:59:06;11.30;99.90
612;DHT22;293;53.888;11.464;2023-03-31T04:01:35;11.20;99.90
612;DHT22;293;53.888;11.464;2023-03-31T04:04:01;11.20;99.90
612;DHT22;293;53.888;11.464;2023-03-31T04:06:28;11.10;99.90
612;DHT22;293;53.888;11.464;2023-03-31T04:08:55;11.10;99.90
612;DHT22;293;53.888;11.464;2023-03-31T04:11:22;11.10;99.90
612;DHT22;293;53.888;11.464;2023-03-31T04:13:49;11.10;99.90
612;DHT22;293;53.888;11.464;2023-03-31T04:16:16;11.20;99.90
612;DHT22;293;53.888;11.464;2023-03-31T04:18:44;11.20;99.90
612;DHT22;293;53.888;11.464;2023-03-31T04:21:14;11.20;99.90
612;DHT22;293;53.888;11.464;2023-03-31T04:23:48;11.20;99.90
612;DHT22;293;53.888;11.464;2023-03-31T04:26:16;11.10;99.90
612;DHT22;293;53.888;11.464;2023-03-31T04:28:51;11.10;99.90
612;DHT22;293;53.888;11.464;2023-03-31T04:31:18;11.10;99.90
612;DHT22;293;53.888;11.464;2023-03-31T04:33:51;11.10;99.90
612;DHT22;293;53.888;11.464;2023-03-31T04:36:18;11.00;99.90
612;DHT22;293;53.888;11.464;2023-03-31T04:38:46;11.00;99.90
612;DHT22;293;53.888;11.464;2023-03-31T04:41:15;11.00;99.90
612;DHT22;293;53.888;11.464;2023-03-31T04:43:42;11.00;99.90
612;DHT22;293;53.888;11.464;2023-03-31T04:46:09;11.00;99.90
612;DHT22;293;53.888;11.464;2023-03-31T04:48:36;11.00;99.90
612;DHT22;293;53.888;11.464;2023-03-31T04:51:05;11.00;99.90
612;DHT22;293;53.888;11.464;2023-03-31T04:53:33;11.00;99.90
612;DHT22;293;53.888;11.464;2023-03-31T04:56:00;10.90;99.90
612;DHT22;293;53.888;11.464;2023-03-31T04:58:27;10.90;99.90
612;DHT22;293;53.888;11.464;2023-03-31T05:00:54;10.90;99.90
612;DHT22;293;53.888;11.464;2023-03-31T05:03:21;10.90;99.90
612;DHT22;293;53.888;11.464;2023-03-31T05:05:48;10.90;99.90
612;DHT22;293;53.888;11.464;2023-03-31T05:08:16;10.90;99.90
612;DHT22;293;53.888;11.464;2023-03-31T05:10:43;11.00;99.90
612;DHT22;293;53.888;11.464;2023-03-31T05:13:10;11.00;99.90
612;DHT22;293;53.888;11.464;2023-03-31T05:15:37;11.10;99.90
612;DHT22;293;53.888;11.464;2023-03-31T05:18:04;11.10;99.90
612;DHT22;293;53.888;11.464;2023-03-31T05:20:31;11.10;99.90
612;DHT22;293;53.888;11.464;2023-03-31T05:22:58;11.10;99.90
612;DHT22;293;53.888;11.464;2023-03-31T05:25:26;11.20;99.90
612;DHT22;293;53.888;11.464;2023-03-31T05:27:57;11.20;99.90
612;DHT22;293;53.888;11.464;2023-03-31T05:30:25;11.20;99.90
612;DHT22;293;53.888;11.464;2023-03-31T05:32:52;11.30;99.90
612;DHT22;293;53.888;11.464;2023-03-31T05:35:20;11.30;99.90
612;DHT22;293;53.888;11.464;2023-03-31T05:37:47;11.30;99.90
612;DHT22;293;53.888;11.464;2023-03-31T05:40:14;11.40;99.90
612;DHT22;293;53.888;11.464;2023-03-31T05:42:43;11.40;99.90
612;DHT22;293;53.888;11.464;2023-03-31T05:45:10;11.50;99.90
612;DHT22;293;53.888;11.464;2023-03-31T05:47:36;11.50;99.90
612;DHT22;293;53.888;11.464;2023-03-31T05:50:04;11.50;99.90
612;DHT22;293;53.888;11.464;2023-03-31T05:52:34;11.60;99.90
612;DHT22;293;53.888;11.464;2023-03-31T05:55:01;11.70;99.90
612;DHT22;293;53.888;11.464;2023-03-31T05:57:28;11.80;99.90
612;DHT22;293;53.888;11.464;2023-03-31T05:59:56;12.00;99.90
612;DHT22;293;53.888;11.464;2023-03-31T06:02:23;12.00;99.90
612;DHT22;293;53.888;11.464;2023-03-31T06:04:50;12.20;99.90
612;DHT22;293;53.888;11.464;2023-03-31T06:07:17;12.50;99.90
612;DHT22;293;53.888;11.464;2023-03-31T06:09:44;12.80;99.90
612;DHT22;293;53.888;11.464;2023-03-31T06:12:11;13.00;99.90
612;DHT22;293;53.888;11.464;2023-03-31T06:14:38;13.10;99.90
612;DHT22;293;53.888;11.464;2023-03-31T06:17:06;13.10;99.90
612;DHT22;293;53.888;11.464;2023-03-31T06:19:33;13.10;99.90
612;DHT22;293;53.888;11.464;2023-03-31T06:22:00;13.10;99.90
612;DHT22;293;53.888;11.464;2023-03-31T06:24:27;13.20;99.90
612;DHT22;293;53.888;11.464;2023-03-31T06:26:54;13.20;99.90
612;DHT22;293;53.888;11.464;2023-03-31T06:29:21;13.20;99.90
612;DHT22;293;53.888;11.464;2023-03-31T06:31:48;13.20;99.90
612;DHT22;293;53.888;11.464;2023-03-31T06:34:16;13.10;99.90
612;DHT22;293;53.888;11.464;2023-03-31T06:36:44;13.10;99.90
612;DHT22;293;53.888;11.464;2023-03-31T06:39:11;13.20;99.90
612;DHT22;293;53.888;11.464;2023-03-31T06:41:38;13.40;99.90
612;DHT22;293;53.888;11.464;2023-03-31T06:44:05;13.60;99.90
612;DHT22;293;53.888;11.464;2023-03-31T06:46:32;13.70;99.90
612;DHT22;293;53.888;11.464;2023-03-31T06:48:59;13.80;99.90
612;DHT22;293;53.888;11.464;2023-03-31T06:51:27;13.80;99.90
612;DHT22;293;53.888;11.464;2023-03-31T06:53:54;13.70;99.90
612;DHT22;293;53.888;11.464;2023-03-31T06:56:21;13.80;99.90
612;DHT22;293;53.888;11.464;2023-03-31T06:58:47;13.80;99.90
612;DHT22;293;53.888;11.464;2023-03-31T07:01:14;13.90;99.90
612;DHT22;293;53.888;11.464;2023-03-31T07:03:41;13.90;99.90
612;DHT22;293;53.888;11.464;2023-03-31T07:06:08;14.10;99.90
612;DHT22;293;53.888;11.464;2023-03-31T07:08:36;14.20;99.90
612;DHT22;293;53.888;11.464;2023-03-31T07:11:03;14.30;99.90
612;DHT22;293;53.888;11.464;2023-03-31T07:13:30;14.50;99.90
612;DHT22;293;53.888;11.464;2023-03-31T07:15:57;14.60;99.90
612;DHT22;293;53.888;11.464;2023-03-31T07:18:24;14.80;99.90
612;DHT22;293;53.888;11.464;2023-03-31T07:20:56;14.90;99.90
612;DHT22;293;53.888;11.464;2023-03-31T07:23:23;15.00;99.90
612;DHT22;293;53.888;11.464;2023-03-31T07:25:52;15.10;99.90
612;DHT22;293;53.888;11.464;2023-03-31T07:28:19;15.20;99.90
612;DHT22;293;53.888;11.464;2023-03-31T07:30:46;15.30;99.90
612;DHT22;293;53.888;11.464;2023-03-31T07:33:12;15.30;99.90
612;DHT22;293;53.888;11.464;2023-03-31T07:35:40;15.20;99.90
612;DHT22;293;53.888;11.464;2023-03-31T07:38:08;15.30;99.90
612;DHT22;293;53.888;11.464;2023-03-31T07:40:35;15.40;99.90
612;DHT22;293;53.888;11.464;2023-03-31T07:43:04;15.50;99.90
612;DHT22;293;53.888;11.464;2023-03-31T07:45:32;15.70;99.90
612;DHT22;293;53.888;11.464;2023-03-31T07:47:59;15.80;99.90
612;DHT22;293;53.888;11.464;2023-03-31T07:50:26;16.00;99.90
612;DHT22;293;53.888;11.464;2023-03-31T07:52:52;16.10;99.90
612;DHT22;293;53.888;11.464;2023-03-31T07:55:19;16.10;99.90
612;DHT22;293;53.888;11.464;2023-03-31T07:57:48;16.10;99.90
612;DHT22;293;53.888;11.464;2023-03-31T08:00:18;16.10;99.90
612;DHT22;293;53.888;11.464;2023-03-31T08:02:45;16.10;99.90
612;DHT22;293;53.888;11.464;2023-03-31T08:05:14;16.00;99.90
612;DHT22;293;53.888;11.464;2023-03-31T08:07:43;16.00;99.90
612;DHT22;293;53.888;11.464;2023-03-31T08:10:13;16.10;99.90
612;DHT22;293;53.888;11.464;2023-03-31T08:12:41;16.20;99.90
612;DHT22;293;53.888;11.464;2023-03-31T08:15:09;16.20;99.90
612;DHT22;293;53.888;11.464;2023-03-31T08:17:37;16.10;99.90
612;DHT22;293;53.888;11.464;2023-03-31T08:20:05;16.00;99.90
612;DHT22;293;53.888;11.464;2023-03-31T08:22:33;15.90;99.90
612;DHT22;293;53.888;11.464;2023-03-31T08:25:00;15.80;99.90
612;DHT22;293;53.888;11.464;2023-03-31T08:27:27;15.80;99.90
612;DHT22;293;53.888;11.464;2023-03-31T08:29:57;15.80;99.90
612;DHT22;293;53.888;11.464;2023-03-31T08:32:27;15.80;99.90
612;DHT22;293;53.888;11.464;2023-03-31T08:34:55;15.80;99.90
612;DHT22;293;53.888;11.464;2023-03-31T08:37:22;15.70;99.90
612;DHT22;293;53.888;11.464;2023-03-31T08:39:50;15.70;99.90
612;DHT22;293;53.888;11.464;2023-03-31T08:42:22;15.70;99.90
612;DHT22;293;53.888;11.464;2023-03-31T08:44:57;15.60;99.90
612;DHT22;293;53.888;11.464;2023-03-31T08:47:26;15.70;99.90
612;DHT22;293;53.888;11.464;2023-03-31T08:49:59;15.80;99.90
612;DHT22;293;53.888;11.464;2023-03-31T08:52:31;15.90;99.90
612;DHT22;293;53.888;11.464;2023-03-31T08:55:03;16.00;99.90
612;DHT22;293;53.888;11.464;2023-03-31T08:57:37;16.10;99.90
612;DHT22;293;53.888;11.464;2023-03-31T09:00:12;16.30;99.90
612;DHT22;293;53.888;11.464;2023-03-31T09:02:44;16.30;99.90
612;DHT22;293;53.888;11.464;2023-03-31T09:05:26;16.40;99.90
612;DHT22;293;53.888;11.464;2023-03-31T09:08:01;16.40;99.90
612;DHT22;293;53.888;11.464;2023-03-31T09:10:43;16.50;99.90
612;DHT22;293;53.888;11.464;2023-03-31T09:13:37;16.50;99.90
612;DHT22;293;53.888;11.464;2023-03-31T09:16:12;16.50;99.90
612;DHT22;293;53.888;11.464;2023-03-31T09:18:41;16.60;99.90
612;DHT22;293;53.888;11.464;2023-03-31T09:21:17;16.60;99.90
612;DHT22;293;53.888;11.464;2023-03-31T09:23:49;16.60;99.90
612;DHT22;293;53.888;11.464;2023-03-31T09:26:23;16.50;99.90
612;DHT22;293;53.888;11.464;2023-03-31T09:28:53;16.50;99.90
612;DHT22;293;53.888;11.464;2023-03-31T09:31:23;16.50;99.90
612;DHT22;293;53.888;11.464;2023-03-31T09:33:53;16.50;99.90
612;DHT22;293;53.888;11.464;2023-03-31T09:36:26;16.60;99.90
612;DHT22;293;53.888;11.464;2023-03-31T09:38:53;16.70;99.90
612;DHT22;293;53.888;11.464;2023-03-31T09:41:20;16.80;99.90
612;DHT22;293;53.888;11.464;2023-03-31T09:43:47;17.00;99.90
612;DHT22;293;53.888;11.464;2023-03-31T09:46:18;17.00;99.90
612;DHT22;293;53.888;11.464;2023-03-31T09:48:58;17.10;99.90
612;DHT22;293;53.888;11.464;2023-03-31T09:51:29;17.00;99.90
612;DHT22;293;53.888;11.464;2023-03-31T09:54:01;17.00;99.90
612;DHT22;293;53.888;11.464;2023-03-31T09:56:45;17.00;99.90
612;DHT22;293;53.888;11.464;2023-03-31T09:59:15;16.90;99.90
612;DHT22;293;53.888;11.464;2023-03-31T10:01:43;16.90;99.90
612;DHT22;293;53.888;11.464;2023-03-31T10:04:19;16.90;99.90
612;DHT22;293;53.888;11.464;2023-03-31T10:06:49;16.90;99.90
612;DHT22;293;53.888;11.464;2023-03-31T10:09:18;16.90;99.90
612;DHT22;293;53.888;11.464;2023-03-31T10:11:57;16.90;99.90
612;DHT22;293;53.888;11.464;2023-03-31T10:14:31;16.90;99.90
612;DHT22;293;53.888;11.464;2023-03-31T10:17:03;16.90;99.90
612;DHT22;293;53.888;11.464;2023-03-31T10:19:32;16.80;99.90
612;DHT22;293;53.888;11.464;2023-03-31T10:22:02;16.60;99.90
612;DHT22;293;53.888;11.464;2023-03-31T10:24:36;16.50;99.90
612;DHT22;293;53.888;11.464;2023-03-31T10:27:06;16.30;99.90
612;DHT22;293;53.888;11.464;2023-03-31T10:29:34;16.30;99.90
612;DHT22;293;53.888;11.464;2023-03-31T10:32:07;16.20;99.90
612;DHT22;293;53.888;11.464;2023-03-31T10:34:37;16.20;99.90
612;DHT22;293;53.888;11.464;2023-03-31T10:37:11;16.20;99.90
612;DHT22;293;53.888;11.464;2023-03-31T10:39:40;16.20;99.90
612;DHT22;293;53.888;11.464;2023-03-31T10:42:09;16.20;99.90
612;DHT22;293;53.888;11.464;2023-03-31T10:44:37;16.30;99.90
612;DHT22;293;53.888;11.464;2023-03-31T10:47:15;16.30;99.90
612;DHT22;293;53.888;11.464;2023-03-31T10:49:44;16.30;99.90
612;DHT22;293;53.888;11.464;2023-03-31T10:52:18;16.20;99.90
612;DHT22;293;53.888;11.464;2023-03-31T10:54:50;16.10;99.90
612;DHT22;293;53.888;11.464;2023-03-31T10:57:22;15.90;99.90
612;DHT22;293;53.888;11.464;2023-03-31T11:00:02;15.70;99.90
612;DHT22;293;53.888;11.464;2023-03-31T11:05:44;15.40;99.90
612;DHT22;293;53.888;11.464;2023-03-31T11:08:32;15.40;99.90
612;DHT22;293;53.888;11.464;2023-03-31T11:11:09;15.30;99.90
612;DHT22;293;53.888;11.464;2023-03-31T11:13:43;15.30;99.90
612;DHT22;293;53.888;11.464;2023-03-31T11:16:17;15.30;99.90
612;DHT22;293;53.888;11.464;2023-03-31T11:18:58;15.40;99.90
612;DHT22;293;53.888;11.464;2023-03-31T11:21:36;15.40;99.90
612;DHT22;293;53.888;11.464;2023-03-31T11:24:13;15.50;99.90
612;DHT22;293;53.888;11.464;2023-03-31T11:26:50;15.50;99.90
612;DHT22;293;53.888;11.464;2023-03-31T11:29:29;15.40;99.90
612;DHT22;293;53.888;11.464;2023-03-31T11:32:15;15.30;99.90
612;DHT22;293;53.888;11.464;2023-03-31T11:34:55;15.20;99.90
612;DHT22;293;53.888;11.464;2023-03-31T11:37:35;15.30;99.90
612;DHT22;293;53.888;11.464;2023-03-31T11:43:06;15.50;99.90
612;DHT22;293;53.888;11.464;2023-03-31T11:45:40;15.60;99.90
612;DHT22;293;53.888;11.464;2023-03-31T11:48:15;15.80;99.90
612;DHT22;293;53.888;11.464;2023-03-31T11:50:44;15.90;99.90
612;DHT22;293;53.888;11.464;2023-03-31T11:53:16;16.00;99.90
612;DHT22;293;53.888;11.464;2023-03-31T11:55:47;16.10;99.90
612;DHT22;293;53.888;11.464;2023-03-31T11:58:16;16.20;99.90
612;DHT22;293;53.888;11.464;2023-03-31T12:00:47;16.30;99.90
612;DHT22;293;53.888;11.464;2023-03-31T12:03:20;16.30;99.90
612;DHT22;293;53.888;11.464;2023-03-31T12:05:50;16.40;99.90
612;DHT22;293;53.888;11.464;2023-03-31T12:08:25;16.50;99.90
612;DHT22;293;53.888;11.464;2023-03-31T12:11:00;16.60;99.90
612;DHT22;293;53.888;11.464;2023-03-31T12:13:43;16.60;99.90
612;DHT22;293;53.888;11.464;2023-03-31T12:16:16;16.60;99.90
612;DHT22;293;53.888;11.464;2023-03-31T12:18:54;16.60;99.90
612;DHT22;293;53.888;11.464;2023-03-31T12:21:24;16.50;99.90
612;DHT22;293;53.888;11.464;2023-03-31T12:23:52;16.50;99.90
612;DHT22;293;53.888;11.464;2023-03-31T12:26:33;16.50;99.90
612;DHT22;293;53.888;11.464;2023-03-31T12:29:06;16.40;99.90
612;DHT22;293;53.888;11.464;2023-03-31T12:31:39;16.40;99.90
612;DHT22;293;53.888;11.464;2023-03-31T12:34:12;16.40;99.90
612;DHT22;293;53.888;11.464;2023-03-31T12:36:48;16.30;99.90
612;DHT22;293;53.888;11.464;2023-03-31T12:39:27;16.30;99.90
612;DHT22;293;53.888;11.464;2023-03-31T12:42:09;16.30;99.90
612;DHT22;293;53.888;11.464;2023-03-31T12:44:48;16.30;99.90
612;DHT22;293;53.888;11.464;2023-03-31T12:47:26;16.40;99.90
612;DHT22;293;53.888;11.464;2023-03-31T12:50:09;16.40;99.90
612;DHT22;293;53.888;11.464;2023-03-31T12:52:46;16.50;99.90
612;DHT22;293;53.888;11.464;2023-03-31T12:55:37;16.70;99.90
612;DHT22;293;53.888;11.464;2023-03-31T12:58:46;16.80;99.90
612;DHT22;293;53.888;11.464;2023-03-31T13:01:17;17.00;99.90
612;DHT22;293;53.888;11.464;2023-03-31T13:03:52;17.00;99.90
612;DHT22;293;53.888;11.464;2023-03-31T13:06:50;17.00;99.90
612;DHT22;293;53.888;11.464;2023-03-31T13:09:46;17.00;99.90
612;DHT22;293;53.888;11.464;2023-03-31T13:12:18;17.00;99.90
612;DHT22;293;53.888;11.464;2023-03-31T13:14:49;17.00;99.90
612;DHT22;293;53.888;11.464;2023-03-31T13:17:26;16.90;99.90
612;DHT22;293;53.888;11.464;2023-03-31T13:19:55;16.90;99.90
612;DHT22;293;53.888;11.464;2023-03-31T13:22:29;16.90;99.90
612;DHT22;293;53.888;11.464;2023-03-31T13:28:24;16.70;99.90
612;DHT22;293;53.888;11.464;2023-03-31T13:30:55;16.70;99.90
612;DHT22;293;53.888;11.464;2023-03-31T13:33:25;16.60;99.90
612;DHT22;293;53.888;11.464;2023-03-31T13:36:01;16.50;99.90
612;DHT22;293;53.888;11.464;2023-03-31T13:38:45;16.50;99.90
612;DHT22;293;53.888;11.464;2023-03-31T13:41:22;16.30;99.90
612;DHT22;293;53.888;11.464;2023-03-31T13:44:20;16.20;99.90
612;DHT22;293;53.888;11.464;2023-03-31T13:47:30;16.20;99.90
612;DHT22;293;53.888;11.464;2023-03-31T13:50:16;16.10;99.90
612;DHT22;293;53.888;11.464;2023-03-31T13:52:52;16.10;99.90
612;DHT22;293;53.888;11.464;2023-03-31T13:55:37;16.20;99.90
612;DHT22;293;53.888;11.464;2023-03-31T13:58:43;16.10;99.90
612;DHT22;293;53.888;11.464;2023-03-31T14:01:26;16.00;99.90
612;DHT22;293;53.888;11.464;2023-03-31T14:04:15;16.00;99.90
612;DHT22;293;53.888;11.464;2023-03-31T14:06:49;15.80;99.90
612;DHT22;293;53.888;11.464;2023-03-31T14:09:23;15.70;99.90
612;DHT22;293;53.888;11.464;2023-03-31T14:11:51;15.60;99.90
612;DHT22;293;53.888;11.464;2023-03-31T14:14:18;15.50;99.90
612;DHT22;293;53.888;11.464;2023-03-31T14:16:47;15.50;99.90
612;DHT22;293;53.888;11.464;2023-03-31T14:19:38;15.50;99.90
612;DHT22;293;53.888;11.464;2023-03-31T14:22:18;15.40;99.90
612;DHT22;293;53.888;11.464;2023-03-31T14:24:52;15.40;99.90
612;DHT22;293;53.888;11.464;2023-03-31T14:27:31;15.40;99.90
612;DHT22;293;53.888;11.464;2023-03-31T14:30:06;15.40;99.90
612;DHT22;293;53.888;11.464;2023-03-31T14:32:41;15.40;99.90
612;DHT22;293;53.888;11.464;2023-03-31T14:35:25;15.40;99.90
612;DHT22;293;53.888;11.464;2023-03-31T14:37:55;15.50;99.90
612;DHT22;293;53.888;11.464;2023-03-31T14:40:23;15.50;99.90
612;DHT22;293;53.888;11.464;2023-03-31T14:42:50;15.60;99.90
612;DHT22;293;53.888;11.464;2023-03-31T14:45:20;15.60;99.90
612;DHT22;293;53.888;11.464;2023-03-31T14:47:54;15.60;99.90
612;DHT22;293;53.888;11.464;2023-03-31T14:50:28;15.70;99.90
612;DHT22;293;53.888;11.464;2023-03-31T14:52:57;15.60;99.90
612;DHT22;293;53.888;11.464;2023-03-31T14:55:27;15.60;99.90
612;DHT22;293;53.888;11.464;2023-03-31T14:57:55;15.70;99.90
612;DHT22;293;53.888;11.464;2023-03-31T15:00:26;15.70;99.90
612;DHT22;293;53.888;11.464;2023-03-31T15:02:54;15.70;99.90
612;DHT22;293;53.888;11.464;2023-03-31T15:05:27;15.80;99.90
612;DHT22;293;53.888;11.464;2023-03-31T15:07:56;15.80;99.90
612;DHT22;293;53.888;11.464;2023-03-31T15:10:24;15.90;99.90
612;DHT22;293;53.888;11.464;2023-03-31T15:12:54;15.90;99.90
612;DHT22;293;53.888;11.464;2023-03-31T15:15:22;15.90;99.90
612;DHT22;293;53.888;11.464;2023-03-31T15:17:50;15.80;99.90
612;DHT22;293;53.888;11.464;2023-03-31T15:20:26;15.80;99.90
612;DHT22;293;53.888;11.464;2023-03-31T15:22:54;15.80;99.90
612;DHT22;293;53.888;11.464;2023-03-31T15:25:24;15.80;99.90
612;DHT22;293;53.888;11.464;2023-03-31T15:27:54;15.70;99.90
612;DHT22;293;53.888;11.464;2023-03-31T15:30:24;15.70;99.90
612;DHT22;293;53.888;11.464;2023-03-31T15:32:53;15.60;99.90
612;DHT22;293;53.888;11.464;2023-03-31T15:35:22;15.70;99.90
612;DHT22;293;53.888;11.464;2023-03-31T15:37:51;15.70;99.90
612;DHT22;293;53.888;11.464;2023-03-31T15:40:22;15.70;99.90
612;DHT22;293;53.888;11.464;2023-03-31T15:42:53;15.60;99.90
612;DHT22;293;53.888;11.464;2023-03-31T15:45:45;15.60;99.90
612;DHT22;293;53.888;11.464;2023-03-31T15:48:18;15.60;99.90
612;DHT22;293;53.888;11.464;2023-03-31T15:50:46;15.60;99.90
612;DHT22;293;53.888;11.464;2023-03-31T15:53:28;15.50;99.90
612;DHT22;293;53.888;11.464;2023-03-31T15:55:56;15.50;99.90
612;DHT22;293;53.888;11.464;2023-03-31T15:58:45;15.50;99.90
612;DHT22;293;53.888;11.464;2023-03-31T16:01:14;15.40;99.90
612;DHT22;293;53.888;11.464;2023-03-31T16:03:43;15.40;99.90
612;DHT22;293;53.888;11.464;2023-03-31T16:06:17;15.30;99.90
612;DHT22;293;53.888;11.464;2023-03-31T16:08:51;15.20;99.90
612;DHT22;293;53.888;11.464;2023-03-31T16:11:25;15.00;99.90
612;DHT22;293;53.888;11.464;2023-03-31T16:13:57;14.90;99.90
612;DHT22;293;53.888;11.464;2023-03-31T16:16:26;14.80;99.90
612;DHT22;293;53.888;11.464;2023-03-31T16:18:59;14.70;99.90
612;DHT22;293;53.888;11.464;2023-03-31T16:21:32;14.60;99.90
612;DHT22;293;53.888;11.464;2023-03-31T16:24:01;14.50;99.90
612;DHT22;293;53.888;11.464;2023-03-31T16:26:28;14.50;99.90
612;DHT22;293;53.888;11.464;2023-03-31T16:28:55;14.40;99.90
612;DHT22;293;53.888;11.464;2023-03-31T16:31:28;14.40;99.90
612;DHT22;293;53.888;11.464;2023-03-31T16:33:56;14.30;99.90
612;DHT22;293;53.888;11.464;2023-03-31T16:36:24;14.30;99.90
612;DHT22;293;53.888;11.464;2023-03-31T16:38:53;14.30;99.90
612;DHT22;293;53.888;11.464;2023-03-31T16:41:26;14.30;99.90
612;DHT22;293;53.888;11.464;2023-03-31T16:43:59;14.30;99.90
612;DHT22;293;53.888;11.464;2023-03-31T16:46:30;14.30;99.90
612;DHT22;293;53.888;11.464;2023-03-31T16:48:58;14.30;99.90
612;DHT22;293;53.888;11.464;2023-03-31T16:51:28;14.20;99.90
612;DHT22;293;53.888;11.464;2023-03-31T16:54:02;14.20;99.90
612;DHT22;293;53.888;11.464;2023-03-31T16:56:33;14.20;99.90
612;DHT22;293;53.888;11.464;2023-03-31T16:59:03;14.20;99.90
612;DHT22;293;53.888;11.464;2023-03-31T17:01:33;14.20;99.90
612;DHT22;293;53.888;11.464;2023-03-31T17:04:04;14.20;99.90